D/T METAR WX W/DIR W/SPE G/SPE TEMP DEWP
7/12/19 22:50 EGSS 072250Z AUTO 21022G32KT 9999 OVC012 10/08 Q1006 SSW (210°) 25.3mph 36.8mph 10°C 8°C
7/12/19 22:20 EGSS 072220Z AUTO 22021KT 9999 OVC013 10/08 Q1007 SW (220°) 24.2mph 10°C 8°C
7/12/19 21:50 EGSS 072150Z AUTO 22020KT 9999 OVC013 09/07 Q1007 SW (220°) 23.0mph 9°C 7°C
7/12/19 21:20 EGSS 072120Z AUTO 22019KT 9999 OVC013 09/07 Q1007 SW (220°) 21.9mph 9°C 7°C
7/12/19 20:50 EGSS 072050Z AUTO 21018KT 9999 OVC014 09/07 Q1008 SSW (210°) 20.7mph 9°C 7°C
7/12/19 20:20 EGSS 072020Z AUTO 22017KT 9999 OVC015 09/07 Q1009 SW (220°) 19.6mph 9°C 7°C
7/12/19 19:50 EGSS 071950Z AUTO 23016KT 9999 OVC016 09/06 Q1010 SW (230°) 18.4mph 9°C 6°C
7/12/19 18:50 EGSS 071850Z AUTO 23013KT 9999 OVC018 09/06 Q1011 SW (230°) 15.0mph 9°C 6°C
7/12/19 18:20 EGSS 071820Z AUTO 23012KT 9999 BKN020 08/05 Q1011 SW (230°) 13.8mph 8°C 5°C
7/12/19 17:50 EGSS 071750Z AUTO 22013KT 9999 NCD 08/05 Q1011 SW (220°) 15.0mph 8°C 5°C
7/12/19 17:20 EGSS 071720Z AUTO 22012KT 9999 FEW022 08/05 Q1011 SW (220°) 13.8mph 8°C 5°C
7/12/19 16:50 EGSS 071650Z AUTO 23011KT 9999 BKN022 08/05 Q1012 SW (230°) 12.7mph 8°C 5°C
7/12/19 16:20 EGSS 071620Z AUTO 22011KT 9999 BKN024 08/06 Q1012 SW (220°) 12.7mph 8°C 6°C
7/12/19 15:50 EGSS 071550Z AUTO 23013KT 9999 FEW025 08/06 Q1012 SW (230°) 15.0mph 8°C 6°C
7/12/19 15:20 EGSS 071520Z AUTO 23011KT 9999 NCD 09/05 Q1012 SW (230°) 12.7mph 9°C 5°C
7/12/19 14:50 EGSS 071450Z AUTO 23014KT 9999 BKN027 09/06 Q1012 SW (230°) 16.1mph 9°C 6°C
7/12/19 14:20 EGSS 071420Z AUTO 24013KT 9999 FEW027 09/06 Q1012 WSW (240°) 15.0mph 9°C 6°C
7/12/19 13:20 EGSS 071320Z AUTO 22011KT 9999 SCT032 10/06 Q1012 SW (220°) 12.7mph 10°C 6°C
7/12/19 12:50 EGSS 071250Z AUTO 22009KT 9999 OVC032 09/07 Q1013 SW (220°) 10.4mph 9°C 7°C
7/12/19 11:50 EGSS 071150Z AUTO 23009KT 9999 OVC032 09/06 Q1013 SW (230°) 10.4mph 9°C 6°C
7/12/19 11:20 EGSS 071120Z AUTO 24009KT 9999 OVC032 09/06 Q1014 WSW (240°) 10.4mph 9°C 6°C
7/12/19 10:50 EGSS 071050Z AUTO 24008KT 9999 OVC034 08/06 Q1014 WSW (240°) 9.2mph 8°C 6°C
7/12/19 10:20 EGSS 071020Z AUTO 23009KT 9999 OVC036 08/06 Q1014 SW (230°) 10.4mph 8°C 6°C
7/12/19 09:50 EGSS 070950Z AUTO 22008KT 9999 OVC036 07/06 Q1014 SW (220°) 9.2mph 7°C 6°C
7/12/19 09:20 EGSS 070920Z AUTO 23006KT 9999 OVC037 07/06 Q1014 SW (230°) 6.9mph 7°C 6°C
7/12/19 08:20 EGSS 070820Z AUTO 23006KT 9999 BKN039 06/05 Q1013 SW (230°) 6.9mph 6°C 5°C
7/12/19 07:50 EGSS 070750Z AUTO 22008KT 9999 BKN039 06/05 Q1013 SW (220°) 9.2mph 6°C 5°C
7/12/19 07:20 EGSS 070720Z AUTO 23006KT 9999 OVC038 07/05 Q1012 SW (230°) 6.9mph 7°C 5°C
7/12/19 06:50 EGSS 070650Z AUTO 25005KT 9999 OVC038 07/05 Q1012 WSW (250°) 5.8mph 7°C 5°C
7/12/19 06:20 EGSS 070620Z AUTO 26005KT 9999 BKN039 08/05 Q1012 W (260°) 5.8mph 8°C 5°C
7/12/19 05:50 EGSS 070550Z AUTO 25006KT 9999 BKN041 08/05 Q1011 WSW (250°) 6.9mph 8°C 5°C
7/12/19 05:20 EGSS 070520Z AUTO 26007KT 9999 SCT042 08/05 Q1011 W (260°) 8.1mph 8°C 5°C
7/12/19 04:50 EGSS 070450Z AUTO 26008KT 9999 OVC041 08/05 Q1011 W (260°) 9.2mph 8°C 5°C
7/12/19 04:20 EGSS 070420Z AUTO 26006KT 9999 OVC041 09/05 Q1011 W (260°) 6.9mph 9°C 5°C
7/12/19 03:50 EGSS 070350Z AUTO 25007KT 9999 OVC039 09/06 Q1010 WSW (250°) 8.1mph 9°C 6°C
7/12/19 03:20 EGSS 070320Z AUTO 26007KT 9999 OVC039 09/06 Q1010 W (260°) 8.1mph 9°C 6°C
7/12/19 02:50 EGSS 070250Z AUTO 26006KT 9999 OVC038 08/06 Q1010 W (260°) 6.9mph 8°C 6°C
7/12/19 02:20 EGSS 070220Z AUTO 26007KT 9999 OVC039 08/05 Q1010 W (260°) 8.1mph 8°C 5°C
7/12/19 01:50 EGSS 070150Z AUTO 25007KT 9999 OVC039 08/05 Q1009 WSW (250°) 8.1mph 8°C 5°C
7/12/19 01:20 EGSS 070120Z AUTO 25008KT 9999 BKN038 07/05 Q1009 WSW (250°) 9.2mph 7°C 5°C
7/12/19 00:20 EGSS 070020Z AUTO 24007KT 9999 OVC039 07/06 Q1008 WSW (240°) 8.1mph 7°C 6°C
6/12/19 23:50 EGSS 062350Z AUTO 24010KT 9999 BKN039 08/06 Q1008 WSW (240°) 11.5mph 8°C 6°C
6/12/19 23:20 EGSS 062320Z AUTO 25009KT 9999 NCD 07/05 Q1008 WSW (250°) 10.4mph 7°C 5°C
6/12/19 22:50 EGSS 062250Z AUTO 26009KT 9999 NCD 07/05 Q1007 W (260°) 10.4mph 7°C 5°C
6/12/19 22:20 EGSS 062220Z AUTO 27009KT 9999 SCT022 08/06 Q1007 W (270°) 10.4mph 8°C 6°C
6/12/19 21:50 EGSS 062150Z AUTO 26008KT 9999 BKN022 BKN028 09/06 Q1007 W (260°) 9.2mph 9°C 6°C
6/12/19 21:20 EGSS 062120Z AUTO 27008KT 9999 FEW026 BKN031 09/06 Q1006 W (270°) 9.2mph 9°C 6°C
6/12/19 20:50 EGSS 062050Z AUTO 27009KT 240V300 9999 OVC024 09/06 Q1006 W (270°) 10.4mph 9°C 6°C